sensor_id;sensor_type;location;lat;lon;timestamp;P1;durP1;ratioP1;P2;durP2;ratioP2
52962;SDS011;38827;53.024;6.596;2023-02-15T00:02:32;30.38;;;20.83;;
52962;SDS011;38827;53.024;6.596;2023-02-15T00:05:05;28.85;;;20.35;;
52962;SDS011;38827;53.024;6.596;2023-02-15T00:14:24;24.10;;;18.00;;
52962;SDS011;38827;53.024;6.596;2023-02-15T00:16:50;28.60;;;18.38;;
52962;SDS011;38827;53.024;6.596;2023-02-15T00:19:29;32.50;;;18.23;;
52962;SDS011;38827;53.024;6.596;2023-02-15T00:31:47;132.75;;;20.15;;
52962;SDS011;38827;53.024;6.596;2023-02-15T00:37:19;195.82;;;25.00;;
52962;SDS011;38827;53.024;6.596;2023-02-15T00:51:02;55.88;;;24.05;;
52962;SDS011;38827;53.024;6.596;2023-02-15T00:53:28;41.63;;;25.63;;
52962;SDS011;38827;53.024;6.596;2023-02-15T00:56:00;41.35;;;25.70;;
52962;SDS011;38827;53.024;6.596;2023-02-15T00:58:46;41.05;;;25.92;;
52962;SDS011;38827;53.024;6.596;2023-02-15T01:01:24;34.33;;;22.35;;
52962;SDS011;38827;53.024;6.596;2023-02-15T01:03:53;31.50;;;21.83;;
52962;SDS011;38827;53.024;6.596;2023-02-15T01:06:37;34.42;;;22.90;;
52962;SDS011;38827;53.024;6.596;2023-02-15T01:09:07;35.70;;;23.70;;
52962;SDS011;38827;53.024;6.596;2023-02-15T01:14:01;29.65;;;21.13;;
52962;SDS011;38827;53.024;6.596;2023-02-15T01:19:49;26.23;;;19.13;;
52962;SDS011;38827;53.024;6.596;2023-02-15T01:22:16;26.65;;;19.35;;
52962;SDS011;38827;53.024;6.596;2023-02-15T01:24:55;25.08;;;18.20;;
52962;SDS011;38827;53.024;6.596;2023-02-15T01:27:30;23.33;;;17.77;;
52962;SDS011;38827;53.024;6.596;2023-02-15T01:30:15;25.13;;;18.38;;
52962;SDS011;38827;53.024;6.596;2023-02-15T01:32:44;25.48;;;18.50;;
52962;SDS011;38827;53.024;6.596;2023-02-15T01:35:09;25.42;;;18.20;;
52962;SDS011;38827;53.024;6.596;2023-02-15T01:57:19;29.30;;;19.50;;
52962;SDS011;38827;53.024;6.596;2023-02-15T02:02:54;25.08;;;17.85;;
52962;SDS011;38827;53.024;6.596;2023-02-15T02:05:21;26.48;;;18.58;;
52962;SDS011;38827;53.024;6.596;2023-02-15T02:07:48;24.08;;;18.08;;
52962;SDS011;38827;53.024;6.596;2023-02-15T02:10:26;25.05;;;18.02;;
52962;SDS011;38827;53.024;6.596;2023-02-15T02:13:18;30.38;;;20.40;;
52962;SDS011;38827;53.024;6.596;2023-02-15T02:30:58;64.78;;;29.00;;
52962;SDS011;38827;53.024;6.596;2023-02-15T02:36:24;63.50;;;32.80;;
52962;SDS011;38827;53.024;6.596;2023-02-15T02:42:51;55.58;;;29.75;;
52962;SDS011;38827;53.024;6.596;2023-02-15T02:48:51;55.70;;;30.92;;
52962;SDS011;38827;53.024;6.596;2023-02-15T02:51:18;61.30;;;31.60;;
52962;SDS011;38827;53.024;6.596;2023-02-15T02:53:50;56.67;;;31.58;;
52962;SDS011;38827;53.024;6.596;2023-02-15T03:00:27;56.28;;;31.80;;
52962;SDS011;38827;53.024;6.596;2023-02-15T03:03:27;59.05;;;32.28;;
52962;SDS011;38827;53.024;6.596;2023-02-15T03:06:30;56.47;;;31.05;;
52962;SDS011;38827;53.024;6.596;2023-02-15T03:09:35;51.85;;;30.92;;
52962;SDS011;38827;53.024;6.596;2023-02-15T03:18:54;45.72;;;27.05;;
52962;SDS011;38827;53.024;6.596;2023-02-15T03:21:54;44.10;;;26.38;;
52962;SDS011;38827;53.024;6.596;2023-02-15T03:37:51;83.85;;;30.63;;
52962;SDS011;38827;53.024;6.596;2023-02-15T03:41:08;100.47;;;33.60;;
52962;SDS011;38827;53.024;6.596;2023-02-15T03:49:39;141.50;;;36.05;;
52962;SDS011;38827;53.024;6.596;2023-02-15T03:52:23;96.63;;;37.33;;
52962;SDS011;38827;53.024;6.596;2023-02-15T04:07:47;192.50;;;36.60;;
52962;SDS011;38827;53.024;6.596;2023-02-15T04:10:28;199.77;;;37.85;;
52962;SDS011;38827;53.024;6.596;2023-02-15T04:13:31;207.45;;;37.72;;
52962;SDS011;38827;53.024;6.596;2023-02-15T04:16:10;187.82;;;42.83;;
52962;SDS011;38827;53.024;6.596;2023-02-15T04:19:10;84.70;;;40.95;;
52962;SDS011;38827;53.024;6.596;2023-02-15T04:27:51;99.93;;;39.97;;
52962;SDS011;38827;53.024;6.596;2023-02-15T04:30:19;121.13;;;43.22;;
52962;SDS011;38827;53.024;6.596;2023-02-15T04:32:46;117.85;;;45.20;;
52962;SDS011;38827;53.024;6.596;2023-02-15T04:35:18;107.70;;;45.78;;
52962;SDS011;38827;53.024;6.596;2023-02-15T04:38:07;193.82;;;47.95;;
52962;SDS011;38827;53.024;6.596;2023-02-15T04:40:41;94.47;;;43.25;;
52962;SDS011;38827;53.024;6.596;2023-02-15T04:43:10;97.38;;;41.33;;
52962;SDS011;38827;53.024;6.596;2023-02-15T04:45:39;85.20;;;41.08;;
52962;SDS011;38827;53.024;6.596;2023-02-15T04:48:04;77.07;;;39.88;;
52962;SDS011;38827;53.024;6.596;2023-02-15T04:50:43;77.30;;;37.97;;
52962;SDS011;38827;53.024;6.596;2023-02-15T04:53:24;75.80;;;38.63;;
52962;SDS011;38827;53.024;6.596;2023-02-15T04:55:50;70.70;;;37.40;;
52962;SDS011;38827;53.024;6.596;2023-02-15T04:58:16;75.60;;;36.53;;
52962;SDS011;38827;53.024;6.596;2023-02-15T05:01:00;75.80;;;35.00;;
52962;SDS011;38827;53.024;6.596;2023-02-15T05:03:44;75.47;;;37.65;;
52962;SDS011;38827;53.024;6.596;2023-02-15T05:06:18;77.90;;;37.17;;
52962;SDS011;38827;53.024;6.596;2023-02-15T05:11:49;122.30;;;40.05;;
52962;SDS011;38827;53.024;6.596;2023-02-15T05:14:15;147.90;;;41.42;;
52962;SDS011;38827;53.024;6.596;2023-02-15T05:16:41;169.23;;;42.25;;
52962;SDS011;38827;53.024;6.596;2023-02-15T05:19:26;242.32;;;45.65;;
52962;SDS011;38827;53.024;6.596;2023-02-15T05:21:52;110.90;;;42.90;;
52962;SDS011;38827;53.024;6.596;2023-02-15T05:28:11;172.77;;;48.13;;
52962;SDS011;38827;53.024;6.596;2023-02-15T05:30:50;227.05;;;51.97;;
52962;SDS011;38827;53.024;6.596;2023-02-15T05:37:11;141.00;;;52.10;;
52962;SDS011;38827;53.024;6.596;2023-02-15T05:39:59;128.32;;;52.15;;
52962;SDS011;38827;53.024;6.596;2023-02-15T05:42:31;186.45;;;54.38;;
52962;SDS011;38827;53.024;6.596;2023-02-15T05:44:58;187.30;;;58.00;;
52962;SDS011;38827;53.024;6.596;2023-02-15T05:47:42;171.30;;;58.78;;
52962;SDS011;38827;53.024;6.596;2023-02-15T06:10:33;115.47;;;54.53;;
52962;SDS011;38827;53.024;6.596;2023-02-15T06:13:02;117.68;;;58.97;;
52962;SDS011;38827;53.024;6.596;2023-02-15T06:15:38;111.53;;;57.15;;
52962;SDS011;38827;53.024;6.596;2023-02-15T06:18:16;107.15;;;54.17;;
52962;SDS011;38827;53.024;6.596;2023-02-15T06:27:10;113.07;;;58.45;;
52962;SDS011;38827;53.024;6.596;2023-02-15T06:32:49;100.38;;;49.60;;
52962;SDS011;38827;53.024;6.596;2023-02-15T06:35:15;110.43;;;53.85;;
52962;SDS011;38827;53.024;6.596;2023-02-15T06:37:53;109.07;;;52.50;;
52962;SDS011;38827;53.024;6.596;2023-02-15T06:40:25;108.38;;;51.83;;
52962;SDS011;38827;53.024;6.596;2023-02-15T06:59:17;92.20;;;45.50;;
52962;SDS011;38827;53.024;6.596;2023-02-15T07:01:54;100.57;;;48.13;;
52962;SDS011;38827;53.024;6.596;2023-02-15T07:04:36;95.88;;;45.83;;
52962;SDS011;38827;53.024;6.596;2023-02-15T07:07:42;88.82;;;46.08;;
52962;SDS011;38827;53.024;6.596;2023-02-15T07:10:20;85.13;;;43.75;;
52962;SDS011;38827;53.024;6.596;2023-02-15T07:12:49;84.00;;;44.80;;
52962;SDS011;38827;53.024;6.596;2023-02-15T07:15:15;82.97;;;45.90;;
52962;SDS011;38827;53.024;6.596;2023-02-15T07:17:57;82.90;;;44.47;;
52962;SDS011;38827;53.024;6.596;2023-02-15T07:20:36;74.55;;;41.80;;
52962;SDS011;38827;53.024;6.596;2023-02-15T07:23:14;79.93;;;43.90;;
52962;SDS011;38827;53.024;6.596;2023-02-15T07:29:07;76.93;;;42.90;;
52962;SDS011;38827;53.024;6.596;2023-02-15T07:31:36;69.75;;;40.70;;
52962;SDS011;38827;53.024;6.596;2023-02-15T07:34:05;74.97;;;42.28;;
52962;SDS011;38827;53.024;6.596;2023-02-15T07:36:37;68.30;;;40.78;;
52962;SDS011;38827;53.024;6.596;2023-02-15T07:39:15;61.22;;;39.60;;
52962;SDS011;38827;53.024;6.596;2023-02-15T07:41:59;55.67;;;36.60;;
52962;SDS011;38827;53.024;6.596;2023-02-15T07:44:28;50.38;;;34.83;;
52962;SDS011;38827;53.024;6.596;2023-02-15T07:47:03;46.70;;;31.58;;
52962;SDS011;38827;53.024;6.596;2023-02-15T07:49:36;43.47;;;29.17;;
52962;SDS011;38827;53.024;6.596;2023-02-15T07:52:02;38.75;;;26.77;;
52962;SDS011;38827;53.024;6.596;2023-02-15T07:54:40;37.55;;;25.60;;
52962;SDS011;38827;53.024;6.596;2023-02-15T07:57:17;37.85;;;24.52;;
52962;SDS011;38827;53.024;6.596;2023-02-15T07:59:46;34.80;;;23.40;;
52962;SDS011;38827;53.024;6.596;2023-02-15T08:02:12;32.72;;;22.77;;
52962;SDS011;38827;53.024;6.596;2023-02-15T08:04:38;35.53;;;22.63;;
52962;SDS011;38827;53.024;6.596;2023-02-15T08:07:07;31.88;;;22.48;;
52962;SDS011;38827;53.024;6.596;2023-02-15T08:09:33;33.20;;;21.90;;
52962;SDS011;38827;53.024;6.596;2023-02-15T08:12:10;32.88;;;23.52;;
52962;SDS011;38827;53.024;6.596;2023-02-15T08:14:42;31.13;;;22.63;;
52962;SDS011;38827;53.024;6.596;2023-02-15T08:17:15;29.73;;;21.55;;
52962;SDS011;38827;53.024;6.596;2023-02-15T08:22:47;30.27;;;20.23;;
52962;SDS011;38827;53.024;6.596;2023-02-15T08:25:12;26.77;;;19.25;;
52962;SDS011;38827;53.024;6.596;2023-02-15T08:27:50;29.02;;;21.00;;
52962;SDS011;38827;53.024;6.596;2023-02-15T08:36:31;25.65;;;18.73;;
52962;SDS011;38827;53.024;6.596;2023-02-15T08:44:33;27.85;;;19.73;;
52962;SDS011;38827;53.024;6.596;2023-02-15T08:46:59;27.73;;;20.52;;
52962;SDS011;38827;53.024;6.596;2023-02-15T08:49:40;27.98;;;19.58;;
52962;SDS011;38827;53.024;6.596;2023-02-15T08:52:06;27.65;;;19.58;;
52962;SDS011;38827;53.024;6.596;2023-02-15T08:54:32;25.63;;;19.40;;
52962;SDS011;38827;53.024;6.596;2023-02-15T08:57:06;24.77;;;19.08;;
52962;SDS011;38827;53.024;6.596;2023-02-15T08:59:42;26.08;;;18.88;;
52962;SDS011;38827;53.024;6.596;2023-02-15T09:02:42;27.65;;;18.50;;
52962;SDS011;38827;53.024;6.596;2023-02-15T09:05:08;28.08;;;19.45;;
52962;SDS011;38827;53.024;6.596;2023-02-15T09:07:43;28.70;;;19.55;;
52962;SDS011;38827;53.024;6.596;2023-02-15T09:10:18;26.95;;;18.85;;
52962;SDS011;38827;53.024;6.596;2023-02-15T09:13:13;27.40;;;19.33;;
52962;SDS011;38827;53.024;6.596;2023-02-15T09:15:39;24.73;;;18.52;;
52962;SDS011;38827;53.024;6.596;2023-02-15T09:24:14;27.17;;;20.10;;
52962;SDS011;38827;53.024;6.596;2023-02-15T09:26:42;26.70;;;20.35;;
52962;SDS011;38827;53.024;6.596;2023-02-15T09:29:18;27.98;;;20.45;;
52962;SDS011;38827;53.024;6.596;2023-02-15T09:38:31;28.80;;;20.58;;
52962;SDS011;38827;53.024;6.596;2023-02-15T09:41:12;26.95;;;20.83;;
52962;SDS011;38827;53.024;6.596;2023-02-15T09:47:04;26.42;;;20.02;;
52962;SDS011;38827;53.024;6.596;2023-02-15T09:52:36;25.30;;;20.63;;
52962;SDS011;38827;53.024;6.596;2023-02-15T09:55:34;27.35;;;20.40;;
52962;SDS011;38827;53.024;6.596;2023-02-15T10:03:33;26.65;;;20.30;;
52962;SDS011;38827;53.024;6.596;2023-02-15T10:06:25;26.98;;;21.75;;
52962;SDS011;38827;53.024;6.596;2023-02-15T10:31:37;28.50;;;22.67;;
52962;SDS011;38827;53.024;6.596;2023-02-15T10:42:31;27.02;;;22.42;;
52962;SDS011;38827;53.024;6.596;2023-02-15T10:45:10;28.67;;;23.15;;
52962;SDS011;38827;53.024;6.596;2023-02-15T10:58:37;31.80;;;23.30;;
52962;SDS011;38827;53.024;6.596;2023-02-15T11:01:43;27.75;;;22.15;;
52962;SDS011;38827;53.024;6.596;2023-02-15T11:07:08;31.97;;;24.07;;
52962;SDS011;38827;53.024;6.596;2023-02-15T11:10:29;32.58;;;24.33;;
52962;SDS011;38827;53.024;6.596;2023-02-15T11:13:04;29.30;;;23.00;;
52962;SDS011;38827;53.024;6.596;2023-02-15T11:18:42;33.03;;;22.88;;
52962;SDS011;38827;53.024;6.596;2023-02-15T11:26:56;29.92;;;23.63;;
52962;SDS011;38827;53.024;6.596;2023-02-15T11:29:33;30.70;;;23.92;;
52962;SDS011;38827;53.024;6.596;2023-02-15T11:32:30;31.20;;;23.67;;
52962;SDS011;38827;53.024;6.596;2023-02-15T11:40:49;30.40;;;23.30;;
52962;SDS011;38827;53.024;6.596;2023-02-15T11:43:30;32.13;;;24.27;;
52962;SDS011;38827;53.024;6.596;2023-02-15T11:46:25;32.30;;;24.83;;
52962;SDS011;38827;53.024;6.596;2023-02-15T11:48:51;32.58;;;24.48;;
52962;SDS011;38827;53.024;6.596;2023-02-15T11:51:29;34.17;;;25.37;;
52962;SDS011;38827;53.024;6.596;2023-02-15T11:54:10;34.97;;;26.30;;
52962;SDS011;38827;53.024;6.596;2023-02-15T11:56:36;33.40;;;25.75;;
52962;SDS011;38827;53.024;6.596;2023-02-15T11:59:04;37.43;;;26.50;;
52962;SDS011;38827;53.024;6.596;2023-02-15T12:05:54;38.15;;;26.30;;
52962;SDS011;38827;53.024;6.596;2023-02-15T12:14:48;42.85;;;28.90;;
52962;SDS011;38827;53.024;6.596;2023-02-15T12:17:19;39.97;;;27.38;;
52962;SDS011;38827;53.024;6.596;2023-02-15T12:19:46;41.90;;;28.35;;
52962;SDS011;38827;53.024;6.596;2023-02-15T12:22:34;43.05;;;28.20;;
52962;SDS011;38827;53.024;6.596;2023-02-15T12:27:30;44.28;;;29.27;;
52962;SDS011;38827;53.024;6.596;2023-02-15T12:30:06;42.33;;;28.70;;
52962;SDS011;38827;53.024;6.596;2023-02-15T12:32:48;41.42;;;28.17;;
52962;SDS011;38827;53.024;6.596;2023-02-15T12:37:54;42.72;;;28.10;;
52962;SDS011;38827;53.024;6.596;2023-02-15T12:40:47;41.28;;;29.17;;
52962;SDS011;38827;53.024;6.596;2023-02-15T12:43:36;41.35;;;28.08;;
52962;SDS011;38827;53.024;6.596;2023-02-15T12:46:22;38.72;;;27.13;;
52962;SDS011;38827;53.024;6.596;2023-02-15T12:49:04;38.63;;;27.15;;
52962;SDS011;38827;53.024;6.596;2023-02-15T12:57:20;34.90;;;24.52;;
52962;SDS011;38827;53.024;6.596;2023-02-15T13:02:34;34.70;;;24.65;;
52962;SDS011;38827;53.024;6.596;2023-02-15T13:07:53;36.05;;;25.30;;
52962;SDS011;38827;53.024;6.596;2023-02-15T13:10:22;35.17;;;25.38;;
52962;SDS011;38827;53.024;6.596;2023-02-15T13:12:49;35.53;;;25.75;;
52962;SDS011;38827;53.024;6.596;2023-02-15T13:15:30;36.88;;;25.65;;
52962;SDS011;38827;53.024;6.596;2023-02-15T13:18:02;37.05;;;25.63;;
52962;SDS011;38827;53.024;6.596;2023-02-15T13:20:30;38.67;;;25.52;;
52962;SDS011;38827;53.024;6.596;2023-02-15T13:23:01;37.17;;;25.20;;
52962;SDS011;38827;53.024;6.596;2023-02-15T13:25:31;36.50;;;25.45;;
52962;SDS011;38827;53.024;6.596;2023-02-15T13:28:05;37.08;;;24.10;;
52962;SDS011;38827;53.024;6.596;2023-02-15T13:30:35;37.97;;;25.25;;
52962;SDS011;38827;53.024;6.596;2023-02-15T13:33:08;37.03;;;24.52;;
52962;SDS011;38827;53.024;6.596;2023-02-15T13:41:10;37.10;;;24.23;;
52962;SDS011;38827;53.024;6.596;2023-02-15T13:59:50;36.35;;;23.25;;
52962;SDS011;38827;53.024;6.596;2023-02-15T14:02:34;36.50;;;23.80;;
52962;SDS011;38827;53.024;6.596;2023-02-15T14:16:39;37.90;;;24.70;;
52962;SDS011;38827;53.024;6.596;2023-02-15T14:19:20;36.72;;;22.65;;
52962;SDS011;38827;53.024;6.596;2023-02-15T14:21:57;35.15;;;23.58;;
52962;SDS011;38827;53.024;6.596;2023-02-15T14:24:30;36.22;;;22.35;;
52962;SDS011;38827;53.024;6.596;2023-02-15T14:29:58;35.35;;;23.70;;
52962;SDS011;38827;53.024;6.596;2023-02-15T14:32:31;37.95;;;24.35;;
52962;SDS011;38827;53.024;6.596;2023-02-15T14:35:04;37.65;;;23.90;;
52962;SDS011;38827;53.024;6.596;2023-02-15T14:43:24;38.85;;;25.42;;
52962;SDS011;38827;53.024;6.596;2023-02-15T14:46:01;38.75;;;24.45;;
52962;SDS011;38827;53.024;6.596;2023-02-15T16:00:46;41.00;;;25.25;;
52962;SDS011;38827;53.024;6.596;2023-02-15T16:06:58;44.10;;;27.77;;
52962;SDS011;38827;53.024;6.596;2023-02-15T16:27:08;43.40;;;25.98;;
52962;SDS011;38827;53.024;6.596;2023-02-15T16:58:05;45.50;;;26.38;;
52962;SDS011;38827;53.024;6.596;2023-02-15T17:00:43;42.60;;;26.27;;
52962;SDS011;38827;53.024;6.596;2023-02-15T17:03:48;41.60;;;26.23;;
52962;SDS011;38827;53.024;6.596;2023-02-15T17:25:47;43.00;;;25.45;;
52962;SDS011;38827;53.024;6.596;2023-02-15T17:31:40;48.28;;;27.75;;
52962;SDS011;38827;53.024;6.596;2023-02-15T17:37:43;51.67;;;28.13;;
52962;SDS011;38827;53.024;6.596;2023-02-15T17:40:24;48.25;;;28.25;;
52962;SDS011;38827;53.024;6.596;2023-02-15T17:46:10;45.50;;;27.98;;
52962;SDS011;38827;53.024;6.596;2023-02-15T17:48:53;47.10;;;27.75;;
52962;SDS011;38827;53.024;6.596;2023-02-15T17:51:50;49.70;;;28.67;;
52962;SDS011;38827;53.024;6.596;2023-02-15T17:54:19;52.30;;;29.25;;
52962;SDS011;38827;53.024;6.596;2023-02-15T17:57:08;52.33;;;30.80;;
52962;SDS011;38827;53.024;6.596;2023-02-15T17:59:37;53.10;;;29.05;;
52962;SDS011;38827;53.024;6.596;2023-02-15T18:02:21;51.00;;;28.63;;
52962;SDS011;38827;53.024;6.596;2023-02-15T18:05:10;54.75;;;29.80;;
52962;SDS011;38827;53.024;6.596;2023-02-15T18:07:56;47.25;;;29.20;;
52962;SDS011;38827;53.024;6.596;2023-02-15T18:10:41;51.95;;;30.05;;
52962;SDS011;38827;53.024;6.596;2023-02-15T18:13:25;49.83;;;28.63;;
52962;SDS011;38827;53.024;6.596;2023-02-15T18:15:51;47.78;;;29.13;;
52962;SDS011;38827;53.024;6.596;2023-02-15T18:18:16;52.38;;;29.65;;
52962;SDS011;38827;53.024;6.596;2023-02-15T18:20:42;52.78;;;30.48;;
52962;SDS011;38827;53.024;6.596;2023-02-15T18:23:13;50.03;;;30.08;;
52962;SDS011;38827;53.024;6.596;2023-02-15T18:25:38;51.45;;;30.75;;
52962;SDS011;38827;53.024;6.596;2023-02-15T18:28:04;50.55;;;28.67;;
52962;SDS011;38827;53.024;6.596;2023-02-15T18:30:30;49.17;;;29.40;;
52962;SDS011;38827;53.024;6.596;2023-02-15T18:32:57;51.78;;;28.75;;
52962;SDS011;38827;53.024;6.596;2023-02-15T18:35:25;48.95;;;28.35;;
52962;SDS011;38827;53.024;6.596;2023-02-15T18:37:53;49.28;;;29.80;;
52962;SDS011;38827;53.024;6.596;2023-02-15T18:40:28;52.30;;;31.37;;
52962;SDS011;38827;53.024;6.596;2023-02-15T18:42:54;51.83;;;30.58;;
52962;SDS011;38827;53.024;6.596;2023-02-15T18:45:25;51.58;;;29.92;;
52962;SDS011;38827;53.024;6.596;2023-02-15T18:50:58;53.60;;;30.63;;
52962;SDS011;38827;53.024;6.596;2023-02-15T18:53:24;53.55;;;31.05;;
52962;SDS011;38827;53.024;6.596;2023-02-15T18:55:52;53.70;;;30.15;;
52962;SDS011;38827;53.024;6.596;2023-02-15T18:58:19;51.13;;;31.25;;
52962;SDS011;38827;53.024;6.596;2023-02-15T19:03:47;51.55;;;31.38;;
52962;SDS011;38827;53.024;6.596;2023-02-15T19:06:20;55.47;;;33.15;;
52962;SDS011;38827;53.024;6.596;2023-02-15T19:08:58;57.22;;;33.03;;
52962;SDS011;38827;53.024;6.596;2023-02-15T19:11:33;52.63;;;30.90;;
52962;SDS011;38827;53.024;6.596;2023-02-15T19:17:00;55.92;;;32.00;;
52962;SDS011;38827;53.024;6.596;2023-02-15T19:19:45;56.17;;;32.67;;
52962;SDS011;38827;53.024;6.596;2023-02-15T19:25:23;52.28;;;30.63;;
52962;SDS011;38827;53.024;6.596;2023-02-15T19:36:28;55.63;;;33.67;;
52962;SDS011;38827;53.024;6.596;2023-02-15T19:42:56;61.88;;;34.30;;
52962;SDS011;38827;53.024;6.596;2023-02-15T19:45:26;65.68;;;35.28;;
52962;SDS011;38827;53.024;6.596;2023-02-15T19:47:55;59.53;;;33.20;;
52962;SDS011;38827;53.024;6.596;2023-02-15T19:50:35;56.28;;;33.75;;
52962;SDS011;38827;53.024;6.596;2023-02-15T19:53:02;59.83;;;34.22;;
52962;SDS011;38827;53.024;6.596;2023-02-15T19:55:28;59.67;;;34.33;;
52962;SDS011;38827;53.024;6.596;2023-02-15T20:04:49;61.53;;;35.95;;
52962;SDS011;38827;53.024;6.596;2023-02-15T20:13:21;60.83;;;35.80;;
52962;SDS011;38827;53.024;6.596;2023-02-15T20:22:55;60.10;;;34.63;;
52962;SDS011;38827;53.024;6.596;2023-02-15T20:29:18;57.17;;;35.55;;
52962;SDS011;38827;53.024;6.596;2023-02-15T20:34:54;64.65;;;36.53;;
52962;SDS011;38827;53.024;6.596;2023-02-15T20:37:35;61.90;;;36.35;;
52962;SDS011;38827;53.024;6.596;2023-02-15T20:43:33;61.75;;;36.30;;
52962;SDS011;38827;53.024;6.596;2023-02-15T20:45:59;63.70;;;37.15;;
52962;SDS011;38827;53.024;6.596;2023-02-15T20:48:49;65.88;;;38.70;;
52962;SDS011;38827;53.024;6.596;2023-02-15T20:51:18;64.85;;;37.60;;
52962;SDS011;38827;53.024;6.596;2023-02-15T20:53:48;64.32;;;38.33;;
52962;SDS011;38827;53.024;6.596;2023-02-15T20:59:11;68.32;;;37.63;;
52962;SDS011;38827;53.024;6.596;2023-02-15T21:02:16;62.65;;;36.00;;
52962;SDS011;38827;53.024;6.596;2023-02-15T21:05:12;66.22;;;39.00;;
52962;SDS011;38827;53.024;6.596;2023-02-15T21:07:55;68.03;;;38.35;;
52962;SDS011;38827;53.024;6.596;2023-02-15T21:10:30;64.38;;;38.58;;
52962;SDS011;38827;53.024;6.596;2023-02-15T21:16:31;66.57;;;38.15;;
52962;SDS011;38827;53.024;6.596;2023-02-15T21:22:00;71.72;;;39.42;;
52962;SDS011;38827;53.024;6.596;2023-02-15T21:26:53;65.67;;;39.30;;
52962;SDS011;38827;53.024;6.596;2023-02-15T21:29:24;67.38;;;38.20;;
52962;SDS011;38827;53.024;6.596;2023-02-15T21:31:52;68.53;;;38.70;;
52962;SDS011;38827;53.024;6.596;2023-02-15T21:34:18;66.38;;;39.53;;
52962;SDS011;38827;53.024;6.596;2023-02-15T21:36:44;67.73;;;37.87;;
52962;SDS011;38827;53.024;6.596;2023-02-15T21:39:16;68.00;;;39.08;;
52962;SDS011;38827;53.024;6.596;2023-02-15T21:41:58;71.60;;;40.22;;
52962;SDS011;38827;53.024;6.596;2023-02-15T21:48:25;72.30;;;40.05;;
52962;SDS011;38827;53.024;6.596;2023-02-15T21:50:50;65.30;;;39.50;;
52962;SDS011;38827;53.024;6.596;2023-02-15T21:53:36;70.97;;;39.75;;
52962;SDS011;38827;53.024;6.596;2023-02-15T21:56:12;68.85;;;40.45;;
52962;SDS011;38827;53.024;6.596;2023-02-15T21:58:43;70.22;;;38.97;;
52962;SDS011;38827;53.024;6.596;2023-02-15T22:03:45;72.88;;;40.05;;
52962;SDS011;38827;53.024;6.596;2023-02-15T22:06:11;66.13;;;39.42;;
52962;SDS011;38827;53.024;6.596;2023-02-15T22:08:38;63.67;;;39.67;;
52962;SDS011;38827;53.024;6.596;2023-02-15T22:11:17;70.70;;;39.15;;
52962;SDS011;38827;53.024;6.596;2023-02-15T22:13:46;65.78;;;39.67;;
52962;SDS011;38827;53.024;6.596;2023-02-15T22:16:16;70.38;;;39.65;;
52962;SDS011;38827;53.024;6.596;2023-02-15T22:18:44;64.97;;;38.72;;
52962;SDS011;38827;53.024;6.596;2023-02-15T22:21:10;70.77;;;40.43;;
52962;SDS011;38827;53.024;6.596;2023-02-15T22:23:36;70.35;;;39.67;;
52962;SDS011;38827;53.024;6.596;2023-02-15T22:26:21;70.87;;;39.97;;
52962;SDS011;38827;53.024;6.596;2023-02-15T22:28:49;72.88;;;39.85;;
52962;SDS011;38827;53.024;6.596;2023-02-15T22:31:17;70.53;;;40.00;;
52962;SDS011;38827;53.024;6.596;2023-02-15T22:33:45;67.85;;;40.53;;
52962;SDS011;38827;53.024;6.596;2023-02-15T22:38:48;68.18;;;39.20;;
52962;SDS011;38827;53.024;6.596;2023-02-15T22:41:14;66.82;;;38.72;;
52962;SDS011;38827;53.024;6.596;2023-02-15T22:43:41;68.47;;;39.47;;
52962;SDS011;38827;53.024;6.596;2023-02-15T22:46:13;67.15;;;39.63;;
52962;SDS011;38827;53.024;6.596;2023-02-15T22:48:43;73.15;;;40.28;;
52962;SDS011;38827;53.024;6.596;2023-02-15T22:51:12;71.28;;;40.30;;
52962;SDS011;38827;53.024;6.596;2023-02-15T22:53:40;68.25;;;38.80;;
52962;SDS011;38827;53.024;6.596;2023-02-15T22:56:06;69.38;;;40.35;;
52962;SDS011;38827;53.024;6.596;2023-02-15T22:58:38;70.75;;;38.85;;
52962;SDS011;38827;53.024;6.596;2023-02-15T23:01:04;68.65;;;38.22;;
52962;SDS011;38827;53.024;6.596;2023-02-15T23:03:30;69.55;;;39.88;;
52962;SDS011;38827;53.024;6.596;2023-02-15T23:08:23;68.15;;;38.88;;
52962;SDS011;38827;53.024;6.596;2023-02-15T23:10:54;72.03;;;40.13;;
52962;SDS011;38827;53.024;6.596;2023-02-15T23:13:22;69.45;;;39.53;;
52962;SDS011;38827;53.024;6.596;2023-02-15T23:15:55;68.20;;;38.35;;
52962;SDS011;38827;53.024;6.596;2023-02-15T23:18:27;66.97;;;38.58;;
52962;SDS011;38827;53.024;6.596;2023-02-15T23:21:00;69.00;;;38.15;;
52962;SDS011;38827;53.024;6.596;2023-02-15T23:23:40;67.35;;;38.55;;
52962;SDS011;38827;53.024;6.596;2023-02-15T23:26:20;67.32;;;39.78;;
52962;SDS011;38827;53.024;6.596;2023-02-15T23:28:48;65.20;;;38.30;;
52962;SDS011;38827;53.024;6.596;2023-02-15T23:31:19;69.88;;;39.72;;
52962;SDS011;38827;53.024;6.596;2023-02-15T23:33:47;70.43;;;38.88;;
52962;SDS011;38827;53.024;6.596;2023-02-15T23:36:30;70.28;;;39.15;;
52962;SDS011;38827;53.024;6.596;2023-02-15T23:39:17;64.85;;;36.97;;
52962;SDS011;38827;53.024;6.596;2023-02-15T23:42:20;68.05;;;38.35;;
52962;SDS011;38827;53.024;6.596;2023-02-15T23:44:50;67.65;;;39.03;;
52962;SDS011;38827;53.024;6.596;2023-02-15T23:47:20;65.13;;;38.30;;
52962;SDS011;38827;53.024;6.596;2023-02-15T23:50:26;66.53;;;38.97;;
52962;SDS011;38827;53.024;6.596;2023-02-15T23:52:53;67.22;;;38.35;;
52962;SDS011;38827;53.024;6.596;2023-02-15T23:55:20;67.40;;;38.58;;
52962;SDS011;38827;53.024;6.596;2023-02-15T23:57:46;72.05;;;38.55;;
